Impacts METAR Board
IDs:

KBWI - Baltimore-Washington, MD, US

Updated at: 1300 UTC 07 Jul 2020
Potential Impact None Slight Moderate High
Time 07/01Z 07/02Z 07/03Z 07/04Z 07/05Z 07/06Z 07/07Z 07/08Z 07/09Z 07/10Z 07/11Z 07/12Z 07/13Z
Temp73 73 71 72 71 71 71 71 71 71 73 75 74
Dewpt69 70 69 69 68 68 68 68 68 68 69 69 69
Altim30.04 30.10 30.09 30.11 30.06 30.03 30.03 30.04 30.04 30.05 30.06 30.07 30.07
VIS5 10 2.5 10 8 10 10 10 10 10 10 10 10
CIG70 8 38 65 110 130 150 160 160 -- -- 250 13
CoverOVCOVCOVCOVCOVCBKNBKNBKNBKNSCTFEWBKNOVC
FltCatMVFRIFRIFRVFRVFRVFRVFRVFRVFRVFRVFRVFRMVFR
WXRA BR--RA BR---RA----------------
WDir1008090100170200022030206060100
WSpd17 15 8 9 10 6 0 3 4 3 5 7 8
WGst25 -- -- -- 19 -- -- -- -- -- -- -- --
Raw hourly METARs
KBWI 070054Z 10017G25KT 5SM RA BR SCT038CB BKN070 BKN090 OVC140 23/21 A3004 RMK AO2 WSHFT 0006 LTG DSNT S AND NW RAB03 TSB18E38 SLP170 CB N-OHD-S MOV SE P0015 T02280206 $
KBWI 070201Z 08015KT 10SM BKN008 OVC050CB 23/21 A3010 RMK AO2 WSHFT 0141 LTG DSNT ALQDS OCNL LTGIC DSNT NE AND DSNT S CB N MOV SE CB DSNT NE AND DSNT S MOV SE T02280211 $
KBWI 070254Z 09008KT 2 1/2SM RA BR SCT014 BKN038CB OVC065 22/21 A3009 RMK AO2 WSHFT 0141 LTG DSNT N AND S AND SW RAB18 SLP189 CB OHD-SE MOV SE P0022 60038 T02170206 50022 $
KBWI 070354Z COR 10009KT 10SM FEW007 BKN065 OVC100 22/21 A3011 RMK AO2 LTG DSNT S RAE53 SLP195 P0011 T02220206 $
KBWI 070458Z 17010G19KT 8SM -RA FEW007 SCT044 OVC110 22/20 A3006 RMK AO2 LTG DSNT S AND SW TSE57 PRESFR OCNL LTGIC DSNT SE-S TS MOVD SE CB DSNT SE-S MOV SE P0000 T02170200 $
KBWI 070554Z 20006KT 10SM FEW007 BKN130 22/20 A3003 RMK AO2 LTG DSNT S AND SW RAE15 TSE0457 SLP168 OCNL LTGICCG DSNT SW CB DSNT SW MOV SE P0001 60080 T02170200 10244 20217 58021 $
KBWI 070654Z 00000KT 10SM FEW007 BKN150 22/20 A3003 RMK AO2 LTG DSNT S AND SW SLP167 OCNL LTGICCC DSNT S-SW CB DSNT S-SW MOV SE T02170200 $
KBWI 070754Z 22003KT 10SM FEW007 FEW090 BKN160 22/20 A3004 RMK AO2 LTG DSNT SW SLP170 OCNL LTGIC DSNT S-SW CB DSNT S-SW MOV SE T02170200 $
KBWI 070854Z 03004KT 10SM SCT010 BKN160 22/20 A3004 RMK AO2 SLP171 T02170200 53003 $
KBWI 070954Z 02003KT 10SM FEW010 SCT160 SCT250 22/20 A3005 RMK AO2 SLP175 T02170200 $
KBWI 071054Z 06005KT 10SM FEW012 FEW160 FEW250 23/21 A3006 RMK AO2 SLP179 T02280206 $
KBWI 071154Z 06007KT 10SM SCT026 SCT160 BKN250 24/21 A3007 RMK AO2 SLP181 70141 T02390206 10239 20217 51010 $
KBWI 071301Z 10008KT 10SM FEW009 BKN013 OVC025 23/21 A3007 RMK AO2 T02330206



Page loaded:  13:41 UTC  |   06:41 AM Pacific  |   07:41 AM Mountain  |   08:41 AM Central  |   09:41 AM Eastern

 

ADVISORIES

FORECASTS

FORECASTS

OBSERVATIONS

USER TOOLS

ABOUT US